createdAt,value
2018-12-12T00:01:50.771Z,1.80
2018-12-12T00:04:20.478Z,1.70
2018-12-12T00:06:49.689Z,1.70
2018-12-12T00:09:18.631Z,1.60
2018-12-12T00:11:47.715Z,1.70
2018-12-12T00:14:16.827Z,1.70
2018-12-12T00:16:45.907Z,1.70
2018-12-12T00:19:15.018Z,1.80
2018-12-12T00:21:44.099Z,1.80
2018-12-12T00:24:13.091Z,1.80
2018-12-12T00:26:42.807Z,1.80
2018-12-12T00:29:12.403Z,1.80
2018-12-12T00:31:41.518Z,1.80
2018-12-12T00:34:10.475Z,1.80
2018-12-12T00:36:39.490Z,1.90
2018-12-12T00:39:08.878Z,1.80
2018-12-12T00:41:37.782Z,1.80
2018-12-12T00:44:06.883Z,1.90
2018-12-12T00:46:36.318Z,1.90
2018-12-12T00:49:05.229Z,1.90
2018-12-12T00:51:35.535Z,1.90
2018-12-12T00:54:04.475Z,1.90
2018-12-12T00:56:33.571Z,1.90
2018-12-12T00:59:02.671Z,2.00
2018-12-12T01:01:31.662Z,2.00
2018-12-12T01:04:00.648Z,2.00
2018-12-12T01:06:29.746Z,2.00
2018-12-12T01:08:58.835Z,2.00
2018-12-12T01:11:32.874Z,2.00
2018-12-12T01:14:01.946Z,2.00
2018-12-12T01:16:31.043Z,2.00
2018-12-12T01:19:00.026Z,2.00
2018-12-12T01:21:29.003Z,2.00
2018-12-12T01:23:58.018Z,2.00
2018-12-12T01:26:27.115Z,1.90
2018-12-12T01:28:56.135Z,2.00
2018-12-12T01:31:25.099Z,2.00
2018-12-12T01:33:54.179Z,2.00
2018-12-12T01:36:23.707Z,1.90
2018-12-12T01:38:52.790Z,1.90
2018-12-12T01:41:21.890Z,1.90
2018-12-12T01:43:51.078Z,1.90
2018-12-12T01:46:20.186Z,2.00
2018-12-12T01:48:49.175Z,1.90
2018-12-12T01:51:18.146Z,1.80
2018-12-12T01:53:48.676Z,1.70
2018-12-12T01:56:17.678Z,1.70
2018-12-12T01:58:46.903Z,1.70
2018-12-12T02:01:15.973Z,1.70
2018-12-12T02:03:45.068Z,1.60
2018-12-12T02:06:14.156Z,1.60
2018-12-12T02:08:43.511Z,1.60
2018-12-12T02:11:12.451Z,1.60
2018-12-12T02:13:41.438Z,1.50
2018-12-12T02:16:10.690Z,1.50
2018-12-12T02:18:41.602Z,1.50
2018-12-12T02:21:10.550Z,1.50
2018-12-12T02:23:39.665Z,1.50
2018-12-12T02:26:08.958Z,1.50
2018-12-12T02:28:38.371Z,1.60
2018-12-12T02:31:07.464Z,1.60
2018-12-12T02:33:36.544Z,1.90
2018-12-12T02:36:05.563Z,2.10
2018-12-12T02:38:34.529Z,2.30
2018-12-12T02:41:03.630Z,2.50
2018-12-12T02:43:32.699Z,2.60
2018-12-12T02:46:01.730Z,2.70
2018-12-12T02:48:30.755Z,2.70
2018-12-12T02:50:59.701Z,2.70
2018-12-12T02:53:28.799Z,2.80
2018-12-12T02:55:57.778Z,2.70
2018-12-12T02:58:26.886Z,2.80
2018-12-12T03:00:55.983Z,2.70
2018-12-12T03:03:25.067Z,2.70
2018-12-12T03:05:54.171Z,2.80
2018-12-12T03:08:23.266Z,2.70
2018-12-12T03:10:52.242Z,2.80
2018-12-12T03:13:21.248Z,2.80
2018-12-12T03:15:50.226Z,2.90
2018-12-12T03:18:19.344Z,2.90
2018-12-12T03:20:48.418Z,3.00
2018-12-12T03:23:17.523Z,3.00
2018-12-12T03:25:46.515Z,3.00
2018-12-12T03:28:15.491Z,3.00
2018-12-12T03:30:44.496Z,3.00
2018-12-12T03:33:13.599Z,3.10
2018-12-12T03:35:43.430Z,3.20
2018-12-12T03:38:12.387Z,3.30
2018-12-12T03:40:41.846Z,3.30
2018-12-12T03:43:11.149Z,3.40
2018-12-12T03:45:40.075Z,3.40
2018-12-12T03:48:09.078Z,3.40
2018-12-12T03:50:38.166Z,3.40
2018-12-12T03:53:07.166Z,3.50
2018-12-12T03:55:36.153Z,3.40
2018-12-12T03:58:05.150Z,3.50
2018-12-12T04:00:34.134Z,3.50
2018-12-12T04:03:03.127Z,3.50
2018-12-12T04:05:32.128Z,3.50
2018-12-12T04:08:01.216Z,3.50
2018-12-12T04:10:30.317Z,3.60
2018-12-12T04:12:59.300Z,3.50
2018-12-12T04:15:28.402Z,3.50
2018-12-12T04:17:57.389Z,3.50
2018-12-12T04:20:26.378Z,3.50
2018-12-12T04:22:58.554Z,3.50
2018-12-12T04:25:27.840Z,3.50
2018-12-12T04:27:56.946Z,3.50
2018-12-12T04:30:26.052Z,3.50
2018-12-12T04:32:55.126Z,3.50
2018-12-12T04:35:24.336Z,3.60
2018-12-12T04:37:53.418Z,3.50
2018-12-12T04:40:22.419Z,3.50
2018-12-12T04:42:51.518Z,3.50
2018-12-12T04:45:20.703Z,3.50
2018-12-12T04:47:50.969Z,3.50
2018-12-12T04:50:21.100Z,3.60
2018-12-12T04:52:50.045Z,3.60
2018-12-12T04:55:19.131Z,3.60
2018-12-12T04:57:48.299Z,3.60
2018-12-12T05:00:17.432Z,3.60
2018-12-12T05:02:47.060Z,3.60
2018-12-12T05:05:16.125Z,3.60
2018-12-12T05:07:45.224Z,3.60
2018-12-12T05:10:14.522Z,3.60
2018-12-12T05:12:43.502Z,3.70
2018-12-12T05:15:12.610Z,3.70
2018-12-12T05:17:41.708Z,3.70
2018-12-12T05:20:10.689Z,3.70
2018-12-12T05:22:39.685Z,3.70
2018-12-12T05:25:08.763Z,3.70
2018-12-12T05:27:37.884Z,3.70
2018-12-12T05:30:07.080Z,3.70
2018-12-12T05:32:36.159Z,3.70
2018-12-12T05:35:05.258Z,3.60
2018-12-12T05:37:34.243Z,3.70
2018-12-12T05:40:03.630Z,3.70
2018-12-12T05:42:32.816Z,3.60
2018-12-12T05:45:01.840Z,3.70
2018-12-12T05:47:30.944Z,3.60
2018-12-12T05:49:59.927Z,3.60
2018-12-12T05:52:29.119Z,3.60
2018-12-12T05:54:58.218Z,3.60
2018-12-12T05:57:27.347Z,3.60
2018-12-12T05:59:56.402Z,3.60
2018-12-12T06:02:25.500Z,3.60
2018-12-12T06:04:54.511Z,3.50
2018-12-12T06:07:23.579Z,3.50
2018-12-12T06:09:52.587Z,3.50
2018-12-12T06:12:22.138Z,3.50
2018-12-12T06:14:51.082Z,3.50
2018-12-12T06:17:20.178Z,3.50
2018-12-12T06:19:49.687Z,3.40
2018-12-12T06:22:19.124Z,3.40
2018-12-12T06:24:48.167Z,3.30
2018-12-12T06:27:17.267Z,3.30
2018-12-12T06:29:46.250Z,3.40
2018-12-12T06:32:15.355Z,3.30
2018-12-12T06:34:44.447Z,3.30
2018-12-12T06:37:13.446Z,3.30
2018-12-12T06:39:42.430Z,3.20
2018-12-12T06:42:11.413Z,3.20
2018-12-12T06:44:40.727Z,3.10
2018-12-12T06:47:09.825Z,3.10
2018-12-12T06:49:38.899Z,3.10
2018-12-12T06:52:07.939Z,3.10
2018-12-12T06:54:37.006Z,3.00
2018-12-12T06:57:05.985Z,3.00
2018-12-12T06:59:34.988Z,3.00
2018-12-12T07:02:04.067Z,3.00
2018-12-12T07:04:33.314Z,3.00
2018-12-12T07:07:02.406Z,3.00
2018-12-12T07:09:31.467Z,2.90
2018-12-12T07:12:00.547Z,2.90
2018-12-12T07:14:29.882Z,2.80
2018-12-12T07:16:58.943Z,2.80
2018-12-12T07:19:27.935Z,2.90
2018-12-12T07:21:56.827Z,2.80
2018-12-12T07:24:25.919Z,2.80
2018-12-12T07:26:55.031Z,2.80
2018-12-12T07:29:24.014Z,2.80
2018-12-12T07:31:53.111Z,2.80
2018-12-12T07:34:22.201Z,2.80
2018-12-12T07:36:51.199Z,2.80
2018-12-12T07:39:20.291Z,2.90
2018-12-12T07:41:49.410Z,2.90
2018-12-12T07:44:18.483Z,2.90
2018-12-12T07:46:47.915Z,2.90
2018-12-12T07:49:17.314Z,2.80
2018-12-12T07:51:46.375Z,2.70
2018-12-12T07:54:15.366Z,2.70
2018-12-12T07:56:44.458Z,2.70
2018-12-12T07:59:13.455Z,2.70
2018-12-12T08:01:42.758Z,2.80
2018-12-12T08:04:11.843Z,2.80
2018-12-12T08:06:40.948Z,2.70
2018-12-12T08:09:09.930Z,2.70
2018-12-12T08:11:39.025Z,2.70
2018-12-12T08:14:08.123Z,2.60
2018-12-12T08:16:37.223Z,2.60
2018-12-12T08:19:06.416Z,2.70
2018-12-12T08:21:35.510Z,2.70
2018-12-12T08:24:04.603Z,2.80
2018-12-12T08:26:33.542Z,2.90
2018-12-12T08:29:02.481Z,3.00
2018-12-12T08:31:31.566Z,3.00
2018-12-12T08:34:00.679Z,3.00
2018-12-12T08:36:29.666Z,3.00
2018-12-12T08:38:58.629Z,3.00
2018-12-12T08:41:27.651Z,3.00
2018-12-12T08:43:56.627Z,2.90
2018-12-12T08:46:25.634Z,3.00
2018-12-12T08:48:54.819Z,3.10
2018-12-12T08:51:23.997Z,3.20
2018-12-12T08:53:53.131Z,3.30
2018-12-12T08:56:22.218Z,3.30
2018-12-12T08:58:51.302Z,3.30
2018-12-12T09:01:21.116Z,3.30
2018-12-12T09:03:50.099Z,3.20
2018-12-12T09:06:19.210Z,3.00
2018-12-12T09:08:48.415Z,2.90
2018-12-12T09:11:17.444Z,2.90
2018-12-12T09:13:46.496Z,3.00
2018-12-12T09:16:15.591Z,3.00
2018-12-12T09:18:44.562Z,3.10
2018-12-12T09:21:13.563Z,3.10
2018-12-12T09:23:42.546Z,3.00
2018-12-12T09:26:11.667Z,3.00
2018-12-12T09:28:40.742Z,3.10
2018-12-12T09:31:09.883Z,3.10
2018-12-12T09:33:38.943Z,3.20
2018-12-12T09:36:08.027Z,3.20
2018-12-12T09:38:37.134Z,3.20
2018-12-12T09:41:06.210Z,3.20
2018-12-12T09:43:36.130Z,3.20
2018-12-12T09:46:05.218Z,3.20
2018-12-12T09:48:34.318Z,3.30
2018-12-12T09:51:07.259Z,3.30
2018-12-12T09:53:34.559Z,3.40
2018-12-12T09:56:03.659Z,3.60
2018-12-12T09:58:32.750Z,3.80
2018-12-12T10:01:01.847Z,3.80
2018-12-12T10:03:31.295Z,3.90
2018-12-12T10:06:01.151Z,4.00
2018-12-12T10:08:30.259Z,4.00
2018-12-12T10:10:59.366Z,4.10
2018-12-12T10:13:28.446Z,4.30
2018-12-12T10:15:57.551Z,5.00
2018-12-12T10:18:26.827Z,5.00
2018-12-12T10:20:55.939Z,5.00
2018-12-12T10:23:24.912Z,5.00
2018-12-12T10:25:54.019Z,4.90
2018-12-12T10:28:23.015Z,4.80
2018-12-12T10:30:52.112Z,4.70
2018-12-12T10:33:21.092Z,4.60
2018-12-12T10:35:50.186Z,4.70
2018-12-12T10:38:19.182Z,5.60
2018-12-12T10:40:48.163Z,5.80
2018-12-12T10:43:17.275Z,5.50
2018-12-12T10:45:46.367Z,5.00
2018-12-12T10:48:15.463Z,4.70
2018-12-12T10:50:44.556Z,4.50
2018-12-12T10:53:13.648Z,4.50
2018-12-12T10:55:42.645Z,4.60
2018-12-12T10:58:11.620Z,4.60
2018-12-12T11:00:42.781Z,4.50
2018-12-12T11:03:17.047Z,4.30
2018-12-12T11:05:46.120Z,4.20
2018-12-12T11:08:15.322Z,4.00
2018-12-12T11:10:44.724Z,4.10
2018-12-12T11:13:13.789Z,4.00
2018-12-12T11:15:42.866Z,4.10
2018-12-12T11:18:11.967Z,4.10
2018-12-12T11:20:41.058Z,4.00
2018-12-12T11:23:10.050Z,3.90
2018-12-12T11:25:39.035Z,3.80
2018-12-12T11:28:08.031Z,3.80
2018-12-12T11:30:37.136Z,3.80
2018-12-12T11:33:06.226Z,3.80
2018-12-12T11:35:35.323Z,3.90
2018-12-12T11:38:04.409Z,3.80
2018-12-12T11:40:33.514Z,3.90
2018-12-12T11:43:02.491Z,3.90
2018-12-12T11:45:31.582Z,4.00
2018-12-12T11:48:00.726Z,4.30
2018-12-12T11:50:29.677Z,5.10
2018-12-12T11:52:58.779Z,5.90
2018-12-12T11:55:27.755Z,5.80
2018-12-12T11:57:56.759Z,5.20
2018-12-12T12:00:25.746Z,5.00
2018-12-12T12:02:54.745Z,4.70
2018-12-12T12:05:23.838Z,4.40
2018-12-12T12:07:52.926Z,4.30
2018-12-12T12:10:22.032Z,4.20
2018-12-12T12:12:51.131Z,4.10
2018-12-12T12:15:20.227Z,4.00
2018-12-12T12:17:49.303Z,3.90
2018-12-12T12:20:18.294Z,3.90
2018-12-12T12:22:47.294Z,3.80
2018-12-12T12:25:16.274Z,3.70
2018-12-12T12:27:45.379Z,3.70
2018-12-12T12:30:14.771Z,3.70
2018-12-12T12:32:43.795Z,3.70
2018-12-12T12:35:12.870Z,3.70
2018-12-12T12:37:42.274Z,3.70
2018-12-12T12:40:14.208Z,3.70
2018-12-12T12:42:43.219Z,3.80
2018-12-12T12:45:12.343Z,3.70
2018-12-12T12:47:41.306Z,3.70
2018-12-12T12:50:10.299Z,3.70
2018-12-12T12:52:39.291Z,3.60
2018-12-12T12:55:08.378Z,3.60
2018-12-12T12:57:37.487Z,3.50
2018-12-12T13:00:07.185Z,3.50
2018-12-12T13:02:36.090Z,3.50
2018-12-12T13:05:05.886Z,3.40
2018-12-12T13:07:34.882Z,3.40
2018-12-12T13:10:04.194Z,3.40
2018-12-12T13:12:33.274Z,3.40
2018-12-12T13:15:02.294Z,3.40
2018-12-12T13:17:31.384Z,3.40
2018-12-12T13:20:00.345Z,3.50
2018-12-12T13:22:29.455Z,3.50
2018-12-12T13:24:58.438Z,3.40
2018-12-12T13:27:27.546Z,3.40
2018-12-12T13:29:56.638Z,3.30
2018-12-12T13:32:25.631Z,3.20
2018-12-12T13:34:54.611Z,3.10
2018-12-12T13:37:23.597Z,3.00
2018-12-12T13:39:52.707Z,3.00
2018-12-12T13:42:21.804Z,3.00
2018-12-12T13:44:50.905Z,3.00
2018-12-12T13:47:19.875Z,2.90
2018-12-12T13:49:48.910Z,2.90
2018-12-12T13:52:17.857Z,2.90
2018-12-12T13:54:47.058Z,2.90
2018-12-12T13:57:16.174Z,2.90
2018-12-12T13:59:45.484Z,3.00
2018-12-12T14:02:14.615Z,3.00
2018-12-12T14:04:43.548Z,3.00
2018-12-12T14:07:12.835Z,3.00
2018-12-12T14:09:42.303Z,3.10
2018-12-12T14:12:17.108Z,3.10
2018-12-12T14:14:42.383Z,3.10
2018-12-12T14:17:11.367Z,3.00
2018-12-12T14:19:40.359Z,3.00
2018-12-12T14:22:09.667Z,3.10
2018-12-12T14:24:39.063Z,3.00
2018-12-12T14:27:08.063Z,3.10
2018-12-12T14:29:37.043Z,3.00
2018-12-12T14:32:06.179Z,3.00
2018-12-12T14:34:35.227Z,3.00
2018-12-12T14:37:04.954Z,3.00
2018-12-12T14:39:34.043Z,3.00
2018-12-12T14:42:03.131Z,3.00
2018-12-12T14:44:32.150Z,3.00
2018-12-12T14:47:01.115Z,3.00
2018-12-12T14:49:30.219Z,2.90
2018-12-12T14:51:59.408Z,2.80
2018-12-12T14:54:28.398Z,2.80
2018-12-12T14:56:57.404Z,2.80
2018-12-12T14:59:26.483Z,2.80
2018-12-12T15:01:56.467Z,2.70
2018-12-12T15:04:25.499Z,2.60
2018-12-12T15:06:54.611Z,2.60
2018-12-12T15:09:23.683Z,2.60
2018-12-12T15:11:52.838Z,2.60
2018-12-12T15:14:21.762Z,2.60
2018-12-12T15:16:50.880Z,2.70
2018-12-12T15:19:19.979Z,2.70
2018-12-12T15:21:49.151Z,2.70
2018-12-12T15:24:18.254Z,2.80
2018-12-12T15:26:47.242Z,2.80
2018-12-12T15:29:16.239Z,2.80
2018-12-12T15:31:45.335Z,2.80
2018-12-12T15:34:14.446Z,2.80
2018-12-12T15:36:43.423Z,2.80
2018-12-12T15:39:12.503Z,2.80
2018-12-12T15:41:41.507Z,2.80
2018-12-12T15:44:10.591Z,2.80
2018-12-12T15:46:39.799Z,2.80
2018-12-12T15:49:08.903Z,2.80
2018-12-12T15:51:38.050Z,2.80
2018-12-12T15:54:07.646Z,2.80
2018-12-12T15:56:36.695Z,2.80
2018-12-12T15:59:05.679Z,2.80
2018-12-12T16:01:34.663Z,2.70
2018-12-12T16:04:04.003Z,2.70
2018-12-12T16:06:33.055Z,2.70
2018-12-12T16:09:02.047Z,2.60
2018-12-12T16:11:31.055Z,2.60
2018-12-12T16:14:00.031Z,2.60
2018-12-12T16:16:29.143Z,2.60
2018-12-12T16:18:58.231Z,2.60
2018-12-12T16:21:27.422Z,2.60
2018-12-12T16:23:56.419Z,2.60
2018-12-12T16:26:25.620Z,2.60
2018-12-12T16:28:54.721Z,2.60
2018-12-12T16:31:23.809Z,2.60
2018-12-12T16:33:52.790Z,2.60
2018-12-12T16:36:21.896Z,2.50
2018-12-12T16:38:50.976Z,2.60
2018-12-12T16:41:19.984Z,2.60
2018-12-12T16:43:48.955Z,2.60
2018-12-12T16:46:18.070Z,2.50
2018-12-12T16:48:47.211Z,2.50
2018-12-12T16:51:16.352Z,2.50
2018-12-12T16:53:45.452Z,2.50
2018-12-12T16:56:15.314Z,2.50
2018-12-12T16:58:44.461Z,2.50
2018-12-12T17:01:13.530Z,2.50
2018-12-12T17:03:42.702Z,2.50
2018-12-12T17:06:11.647Z,2.50
2018-12-12T17:08:40.764Z,2.40
2018-12-12T17:11:09.831Z,2.40
2018-12-12T17:13:38.924Z,2.40
2018-12-12T17:16:08.127Z,2.40
2018-12-12T17:18:37.219Z,2.40
2018-12-12T17:21:06.422Z,2.30
2018-12-12T17:23:35.511Z,2.30
2018-12-12T17:26:05.422Z,2.20
2018-12-12T17:28:34.515Z,2.20
2018-12-12T17:31:04.327Z,2.20
2018-12-12T17:33:33.331Z,2.30
2018-12-12T17:36:02.302Z,2.30
2018-12-12T17:38:31.976Z,2.30
2018-12-12T17:41:00.900Z,2.30
2018-12-12T17:43:29.991Z,2.30
2018-12-12T17:45:59.207Z,2.30
2018-12-12T17:48:28.300Z,2.40
2018-12-12T17:50:57.283Z,2.40
2018-12-12T17:53:26.296Z,2.40
2018-12-12T17:55:55.475Z,2.40
2018-12-12T17:58:24.574Z,2.40
2018-12-12T18:00:53.767Z,2.40
2018-12-12T18:03:22.862Z,2.40
2018-12-12T18:05:51.947Z,2.40
2018-12-12T18:08:21.055Z,2.40
2018-12-12T18:10:50.035Z,2.40
2018-12-12T18:13:19.127Z,2.30
2018-12-12T18:15:48.243Z,2.30
2018-12-12T18:18:17.334Z,2.20
2018-12-12T18:20:46.515Z,2.20
2018-12-12T18:23:15.511Z,2.10
2018-12-12T18:25:44.618Z,2.10
2018-12-12T18:28:13.827Z,2.10
2018-12-12T18:30:42.813Z,2.10
2018-12-12T18:33:11.943Z,2.10
2018-12-12T18:35:40.983Z,2.00
2018-12-12T18:38:09.986Z,2.00
2018-12-12T18:40:38.970Z,2.10
2018-12-12T18:43:08.067Z,2.10
2018-12-12T18:45:37.064Z,2.10
2018-12-12T18:48:06.259Z,2.10
2018-12-12T18:50:35.351Z,2.10
2018-12-12T18:53:04.328Z,2.00
2018-12-12T18:55:33.544Z,2.10
2018-12-12T18:58:02.643Z,2.10
2018-12-12T19:00:31.800Z,2.10
2018-12-12T19:03:00.839Z,2.20
2018-12-12T19:05:30.444Z,2.20
2018-12-12T19:07:59.519Z,2.10
2018-12-12T19:10:29.295Z,2.10
2018-12-12T19:12:58.317Z,2.10
2018-12-12T19:15:27.420Z,2.10
2018-12-12T19:17:56.514Z,2.10
2018-12-12T19:20:26.075Z,2.10
2018-12-12T19:22:55.127Z,2.10
2018-12-12T19:25:24.211Z,2.20
2018-12-12T19:27:53.313Z,2.20
2018-12-12T19:30:22.383Z,2.20
2018-12-12T19:32:51.488Z,2.10
2018-12-12T19:35:20.487Z,2.10
2018-12-12T19:37:49.883Z,2.10
2018-12-12T19:40:19.008Z,2.10
2018-12-12T19:42:48.074Z,2.10
2018-12-12T19:45:17.311Z,2.10
2018-12-12T19:47:46.259Z,2.00
2018-12-12T19:50:15.283Z,2.10
2018-12-12T19:52:44.474Z,2.10
2018-12-12T19:55:13.747Z,2.00
2018-12-12T19:57:42.751Z,2.10
2018-12-12T20:00:11.945Z,2.10
2018-12-12T20:02:41.024Z,2.10
2018-12-12T20:05:10.032Z,2.10
2018-12-12T20:07:39.119Z,2.00
2018-12-12T20:10:11.191Z,2.00
2018-12-12T20:12:40.591Z,2.00
2018-12-12T20:15:13.929Z,2.00
2018-12-12T20:17:42.979Z,2.00
2018-12-12T20:20:11.958Z,2.00
2018-12-12T20:22:40.947Z,2.00
2018-12-12T20:25:09.947Z,2.00
2018-12-12T20:27:39.047Z,1.90
2018-12-12T20:30:08.230Z,1.90
2018-12-12T20:32:37.363Z,2.00
2018-12-12T20:35:06.827Z,2.00
2018-12-12T20:37:35.820Z,2.00
2018-12-12T20:40:05.342Z,1.90
2018-12-12T20:42:34.427Z,1.90
2018-12-12T20:45:03.531Z,1.90
2018-12-12T20:47:32.503Z,1.90
2018-12-12T20:50:01.612Z,1.90
2018-12-12T20:52:30.715Z,1.90
2018-12-12T20:54:59.687Z,2.00
2018-12-12T20:57:28.687Z,2.00
2018-12-12T20:59:57.777Z,2.00
2018-12-12T21:02:26.887Z,2.00
2018-12-12T21:04:55.899Z,1.90
2018-12-12T21:07:24.959Z,1.90
2018-12-12T21:09:53.946Z,1.90
2018-12-12T21:12:23.043Z,1.90
2018-12-12T21:14:52.150Z,1.90
2018-12-12T21:17:21.532Z,1.80
2018-12-12T21:19:50.750Z,1.80
2018-12-12T21:22:19.838Z,1.80
2018-12-12T21:24:49.844Z,1.80
2018-12-12T21:27:18.954Z,1.80
2018-12-12T21:29:48.031Z,1.80
2018-12-12T21:32:17.650Z,1.90
2018-12-12T21:34:46.642Z,1.90
2018-12-12T21:37:15.634Z,1.90
2018-12-12T21:39:44.731Z,1.90
2018-12-12T21:42:13.835Z,1.90
2018-12-12T21:44:42.819Z,1.90
2018-12-12T21:47:11.899Z,1.90
2018-12-12T21:49:40.899Z,1.90
2018-12-12T21:52:09.991Z,1.90
2018-12-12T21:54:38.991Z,1.90
2018-12-12T21:57:08.082Z,2.00
2018-12-12T21:59:37.163Z,2.00
2018-12-12T22:02:06.270Z,2.00
2018-12-12T22:04:37.350Z,1.90
2018-12-12T22:07:06.198Z,2.00
2018-12-12T22:09:35.299Z,2.00
2018-12-12T22:12:04.583Z,2.00
2018-12-12T22:14:33.693Z,2.00
2018-12-12T22:17:02.862Z,2.10
2018-12-12T22:19:31.981Z,2.10
2018-12-12T22:22:01.096Z,2.20
2018-12-12T22:24:30.275Z,2.20
2018-12-12T22:26:59.258Z,2.20
2018-12-12T22:29:28.246Z,2.30
2018-12-12T22:31:57.286Z,2.40
2018-12-12T22:34:26.430Z,2.40
2018-12-12T22:36:55.434Z,2.40
2018-12-12T22:39:24.527Z,2.40
2018-12-12T22:41:53.514Z,2.40
2018-12-12T22:44:22.507Z,2.40
2018-12-12T22:46:51.492Z,2.40
2018-12-12T22:49:20.603Z,2.30
2018-12-12T22:51:49.802Z,2.30
2018-12-12T22:54:18.878Z,2.20
2018-12-12T22:56:47.982Z,2.20
2018-12-12T22:59:17.610Z,2.20
2018-12-12T23:01:46.703Z,2.20
2018-12-12T23:04:15.767Z,2.20
2018-12-12T23:06:44.868Z,2.10
2018-12-12T23:09:13.966Z,2.20
2018-12-12T23:11:43.577Z,2.20
2018-12-12T23:14:12.671Z,2.20
2018-12-12T23:16:42.059Z,2.10
2018-12-12T23:19:11.155Z,2.10
2018-12-12T23:21:40.258Z,2.10
2018-12-12T23:24:09.343Z,2.00
2018-12-12T23:26:38.447Z,2.00
2018-12-12T23:29:07.547Z,2.10
2018-12-12T23:31:36.640Z,2.00
2018-12-12T23:34:05.622Z,2.00
2018-12-12T23:36:34.618Z,2.00
2018-12-12T23:39:05.295Z,2.10
2018-12-12T23:41:34.342Z,2.20
2018-12-12T23:44:03.448Z,2.10
2018-12-12T23:46:32.543Z,2.20
2018-12-12T23:49:01.619Z,2.20
2018-12-12T23:51:30.723Z,2.20
2018-12-12T23:53:59.694Z,2.20
2018-12-12T23:56:28.746Z,2.10
2018-12-12T23:58:57.811Z,2.20
